^^
Weather Station nurmiin Historical Data
 
Daily Summary for July 26, 2021 Units:  Metric    English   Both
Daily Weekly Monthly Yearly Custom
  Current: High: Low: Average:
Temperature: 14.8 °C 18.4 °C 14.8 °C 16.3 °C
Dew Point: 9.8 °C 9.8 °C 9.3 °C 9.6 °C
Humidity: 72% 72% 57% 64%
Wind Speed: 3.4km/h 3.4km/h 0km/h 1.8km/h
Wind Gust: 2.6km/h 2.6km/h - -
WindWSW - - WSW
Pressure: 1021.9 hPa 1022.9 hPa 1021.9 hPa -
Precipitation: 0 mm      
Historical Graphs
 
 
Tabular Data for July 26, 2021
Time Temperature Dew Point Pressure Wind Wind Speed Wind Gust Humidity Rainfall Rate (Hourly) solar
00:04 18.4 °C 9.7 °C 1021.9 hPa WSW 2.1 km/h 1.9 km/h 57% 0 mm W/m2
00:09 18.3 °C 9.6 °C 1021.9 hPa WSW 1.9 km/h 2.3 km/h 57% 0 mm W/m2
00:14 18.2 °C 9.6 °C 1021.9 hPa WSW 0.3 km/h   57% 0 mm W/m2
00:19 18.1 °C 9.5 °C 1021.9 hPa WSW 1.9 km/h 1.9 km/h 57.2% 0 mm W/m2
00:24 17.9 °C 9.6 °C 1021.9 hPa WSW 1.9 km/h 1.9 km/h 58% 0 mm W/m2
00:29 17.8 °C 9.4 °C 1021.9 hPa WSW 2.6 km/h 2.6 km/h 58% 0 mm W/m2
00:34 17.6 °C 9.4 °C 1021.9 hPa WSW 2.1 km/h 1.9 km/h 58.8% 0 mm W/m2
00:39 17.4 °C 9.3 °C 1021.9 hPa WSW 1.9 km/h 1.9 km/h 59% 0 mm W/m2
00:44 17.3 °C 9.3 °C 1021.9 hPa WSW 2.1 km/h 2.3 km/h 59.4% 0 mm W/m2
00:49 17.3 °C 9.4 °C 1021.9 hPa WSW 1.6 km/h 2.3 km/h 60% 0 mm W/m2
00:54 17.2 °C 9.4 °C 1021.9 hPa WSW 1.9 km/h 1.9 km/h 60.1% 0 mm W/m2
00:59 17.1 °C 9.4 °C 1021.9 hPa WSW 1.9 km/h 1.4 km/h 61% 0 mm W/m2
01:04 17 °C 9.5 °C 1021.9 hPa WSW 1.9 km/h 1.9 km/h 61.3% 0 mm W/m2
01:09 16.9 °C 9.8 °C 1021.9 hPa WSW 1.9 km/h 1.9 km/h 62.6% 0 mm W/m2
01:14 16.8 °C 9.8 °C 1021.9 hPa WSW 1.8 km/h 1.9 km/h 63% 0 mm W/m2
01:19 16.8 °C 9.7 °C 1021.9 hPa WSW 0.8 km/h 1.9 km/h 63% 0 mm W/m2
01:24 16.7 °C 9.6 °C 1021.9 hPa Calm     63% 0 mm W/m2
01:29 16.7 °C 9.6 °C 1021.9 hPa Calm     63% 0 mm W/m2
01:34 16.6 °C 9.7 °C 1021.9 hPa WSW 0.5 km/h 1.4 km/h 63.6% 0 mm W/m2
01:39 16.6 °C 9.7 °C 1021.9 hPa WSW 2.4 km/h 2.3 km/h 64% 0 mm W/m2
01:44 16.4 °C 9.6 °C 1021.9 hPa WSW 2.6 km/h 2.6 km/h 64% 0 mm W/m2
01:49 16.4 °C 9.6 °C 1021.9 hPa WSW 2.1 km/h 1.9 km/h 64% 0 mm W/m2
01:54 16.4 °C 9.6 °C 1021.9 hPa WSW 3.2 km/h 2.6 km/h 64.2% 0 mm W/m2
01:59 16.3 °C 9.7 °C 1021.9 hPa WSW 3.2 km/h 2.6 km/h 65% 0 mm W/m2
02:04 16.3 °C 9.7 °C 1021.9 hPa WSW 2.3 km/h 2.3 km/h 65% 0 mm W/m2
02:09 16.2 °C 9.7 °C 1021.9 hPa WSW 2.1 km/h 1.9 km/h 65% 0 mm W/m2
02:14 16.2 °C 9.6 °C 1021.9 hPa WSW 2.3 km/h 2.3 km/h 65% 0 mm W/m2
02:19 16.1 °C 9.6 °C 1021.9 hPa WSW 2.1 km/h 2.3 km/h 65.2% 0 mm W/m2
02:24 16.1 °C 9.7 °C 1021.9 hPa WSW 1.9 km/h 1.4 km/h 66% 0 mm W/m2
02:29 16 °C 9.7 °C 1021.9 hPa WSW 1.4 km/h 1.4 km/h 66% 0 mm W/m2
02:34 16 °C 9.7 °C 1021.9 hPa Calm     66% 0 mm W/m2
02:39 15.9 °C 9.6 °C 1021.9 hPa WSW 1.4 km/h 1.4 km/h 66% 0 mm W/m2
02:44 15.8 °C 9.4 °C 1021.9 hPa WSW 0.5 km/h 1.4 km/h 66% 0 mm W/m2
02:49 15.7 °C 9.5 °C 1021.9 hPa Calm     66.5% 0 mm W/m2
02:54 15.7 °C 9.6 °C 1021.9 hPa WSW 1.8 km/h 2.3 km/h 67% 0 mm W/m2
02:59 15.6 °C 9.5 °C 1021.9 hPa WSW 0.8 km/h 1.9 km/h 67% 0 mm W/m2
03:04 15.6 °C 9.5 °C 1022.9 hPa Calm     67% 0 mm W/m2
03:09 15.6 °C 9.5 °C 1022.9 hPa Calm     67% 0 mm W/m2
03:14 15.5 °C 9.6 °C 1022.9 hPa WSW 1.4 km/h 1.4 km/h 67.6% 0 mm W/m2
03:19 15.5 °C 9.4 °C 1022.9 hPa Calm     67.4% 0 mm W/m2
03:24 15.4 °C 9.4 °C 1021.9 hPa WSW 1.1 km/h 1.4 km/h 67.7% 0 mm W/m2
03:29 15.3 °C 9.4 °C 1021.9 hPa WSW 2.6 km/h 2.3 km/h 68% 0 mm W/m2
03:34 15.2 °C 9.3 °C 1021.9 hPa WSW 2.4 km/h 2.6 km/h 68.1% 0 mm W/m2
03:39 15.1 °C 9.4 °C 1021.9 hPa WSW 2.6 km/h 2.3 km/h 69% 0 mm W/m2
03:44 15.1 °C 9.4 °C 1021.9 hPa WSW 2.9 km/h 2.6 km/h 69% 0 mm W/m2
03:49 15 °C 9.3 °C 1021.9 hPa WSW 2.3 km/h 2.3 km/h 69% 0 mm W/m2
03:54 15 °C 9.4 °C 1021.9 hPa WSW 3.1 km/h 2.6 km/h 69.6% 0 mm W/m2
03:59 14.9 °C 9.7 °C 1021.9 hPa WSW 3.1 km/h 2.6 km/h 71% 0 mm W/m2
04:04 14.8 °C 9.6 °C 1021.9 hPa WSW 2.4 km/h 2.6 km/h 71.1% 0 mm W/m2
04:09 14.8 °C 9.8 °C 1021.9 hPa WSW 3.4 km/h 2.6 km/h 72% 0 mm W/m2
Sääasema nurmiin, Utti
Compliments of Weather Underground - 2 mb
Page generated in 0.87 seconds.